createdAt,value
2019-01-19T00:01:34.294Z,98.55
2019-01-19T00:04:59.809Z,98.54
2019-01-19T00:07:58.401Z,98.52
2019-01-19T00:11:14.090Z,98.32
2019-01-19T00:14:29.250Z,98.51
2019-01-19T00:17:30.908Z,98.22
2019-01-19T00:20:35.050Z,98.13
2019-01-19T00:23:48.349Z,98.15
2019-01-19T00:27:08.505Z,98.31
2019-01-19T00:30:22.164Z,98.72
2019-01-19T00:33:26.306Z,98.53
2019-01-19T00:36:13.953Z,98.73
2019-01-19T00:39:24.611Z,98.72
2019-01-19T00:42:32.034Z,98.50
2019-01-19T00:45:24.103Z,98.17
2019-01-19T00:48:29.951Z,97.94
2019-01-19T00:51:29.107Z,97.65
2019-01-19T00:54:28.878Z,97.81
2019-01-19T00:57:13.790Z,97.84
2019-01-19T00:59:46.567Z,98.02
2019-01-19T01:02:55.823Z,98.13
2019-01-19T01:05:47.762Z,97.98
2019-01-19T01:08:49.549Z,98.09
2019-01-19T01:11:43.624Z,98.05
2019-01-19T01:14:56.585Z,98.02
2019-01-19T01:17:59.848Z,97.60
2019-01-19T01:21:03.569Z,97.58
2019-01-19T01:24:06.081Z,97.37
2019-01-19T01:27:27.837Z,97.29
2019-01-19T01:30:20.763Z,96.98
2019-01-19T01:33:14.771Z,96.77
2019-01-19T01:36:24.659Z,96.44
2019-01-19T01:39:44.615Z,96.32
2019-01-19T01:42:52.144Z,96.79
2019-01-19T01:45:59.326Z,96.36
2019-01-19T01:48:55.639Z,96.33
2019-01-19T01:51:35.527Z,96.26
2019-01-19T01:54:28.655Z,96.11
2019-01-19T01:57:01.380Z,96.42
2019-01-19T02:00:23.881Z,96.47
2019-01-19T02:03:49.390Z,96.36
2019-01-19T02:07:11.855Z,96.58
2019-01-19T02:10:17.812Z,95.96
2019-01-19T02:12:56.953Z,96.31
2019-01-19T02:15:42.059Z,96.34
2019-01-19T02:18:52.477Z,95.94
2019-01-19T02:22:04.969Z,96.09
2019-01-19T02:25:01.634Z,95.84
2019-01-19T02:28:07.691Z,95.88
2019-01-19T02:31:20.597Z,95.66
2019-01-19T02:34:18.296Z,95.57
2019-01-19T02:37:07.748Z,95.75
2019-01-19T02:40:16.833Z,95.76
2019-01-19T02:43:23.518Z,95.31
2019-01-19T02:46:32.029Z,95.16
2019-01-19T02:49:20.932Z,95.26
2019-01-19T02:52:31.752Z,95.71
2019-01-19T02:55:43.621Z,95.63
2019-01-19T02:58:44.067Z,95.75
2019-01-19T03:02:08.687Z,96.22
2019-01-19T03:05:05.509Z,95.83
2019-01-19T03:07:47.210Z,96.04
2019-01-19T03:10:44.356Z,95.71
2019-01-19T03:13:39.671Z,95.75
2019-01-19T03:16:53.419Z,95.97
2019-01-19T03:19:48.218Z,96.06
2019-01-19T03:23:14.144Z,96.17
2019-01-19T03:26:45.597Z,96.41
2019-01-19T03:29:41.608Z,96.59
2019-01-19T03:32:37.666Z,96.85
2019-01-19T03:35:44.419Z,96.95
2019-01-19T03:38:56.680Z,96.96
2019-01-19T03:42:12.036Z,97.00
2019-01-19T03:45:19.473Z,97.14
2019-01-19T03:48:24.205Z,97.20
2019-01-19T03:51:23.399Z,97.06
2019-01-19T03:54:23.791Z,97.41
2019-01-19T03:57:33.127Z,97.65
2019-01-19T04:00:42.865Z,97.72
2019-01-19T04:03:58.136Z,97.50
2019-01-19T04:06:55.904Z,97.60
2019-01-19T04:09:58.084Z,97.65
2019-01-19T04:12:50.332Z,97.87
2019-01-19T04:15:48.128Z,97.78
2019-01-19T04:18:28.760Z,97.76
2019-01-19T04:21:36.621Z,97.73
2019-01-19T04:24:22.643Z,97.57
2019-01-19T04:26:55.176Z,97.61
2019-01-19T04:29:24.746Z,97.56
2019-01-19T04:31:53.960Z,97.64
2019-01-19T04:34:25.116Z,97.51
2019-01-19T04:36:54.301Z,97.30
2019-01-19T04:39:23.468Z,97.46
2019-01-19T04:41:52.703Z,97.59
2019-01-19T04:44:22.236Z,97.35
2019-01-19T04:46:51.736Z,97.26
2019-01-19T04:49:21.214Z,97.06
2019-01-19T04:51:50.455Z,97.29
2019-01-19T04:54:19.820Z,97.32
2019-01-19T04:56:49.030Z,97.57
2019-01-19T04:59:18.527Z,97.64
2019-01-19T05:01:47.733Z,97.49
2019-01-19T05:04:17.326Z,97.48
2019-01-19T05:06:46.554Z,97.34
2019-01-19T05:09:16.177Z,97.54
2019-01-19T05:11:45.379Z,97.92
2019-01-19T05:14:14.956Z,97.76
2019-01-19T05:16:44.166Z,97.73
2019-01-19T05:19:13.322Z,97.64
2019-01-19T05:21:42.833Z,98.02
2019-01-19T05:24:11.978Z,98.14
2019-01-19T05:26:41.165Z,98.02
2019-01-19T05:29:10.667Z,98.31
2019-01-19T05:31:39.830Z,98.08
2019-01-19T05:34:09.671Z,98.35
2019-01-19T05:36:38.843Z,98.49
2019-01-19T05:39:08.924Z,98.69
2019-01-19T05:41:38.132Z,98.77
2019-01-19T05:44:07.504Z,98.60
2019-01-19T05:46:37.009Z,98.56
2019-01-19T05:49:06.209Z,98.72
2019-01-19T05:51:35.390Z,98.82
2019-01-19T05:54:04.829Z,98.88
2019-01-19T05:56:34.117Z,98.87
2019-01-19T05:59:03.749Z,98.99
2019-01-19T06:01:32.991Z,99.04
2019-01-19T06:04:02.194Z,99.20
2019-01-19T06:06:31.344Z,99.21
2019-01-19T06:09:01.321Z,99.08
2019-01-19T06:11:30.682Z,99.01
2019-01-19T06:14:00.339Z,98.87
2019-01-19T06:16:30.384Z,98.99
2019-01-19T06:18:59.866Z,99.05
2019-01-19T06:21:33.017Z,99.04
2019-01-19T06:24:02.196Z,98.98
2019-01-19T06:26:31.377Z,99.11
2019-01-19T06:29:00.560Z,99.18
2019-01-19T06:31:29.753Z,99.16
2019-01-19T06:33:58.934Z,99.10
2019-01-19T06:36:28.078Z,99.08
2019-01-19T06:38:57.958Z,99.23
2019-01-19T06:41:27.118Z,99.26
2019-01-19T06:43:56.866Z,99.37
2019-01-19T06:46:26.404Z,99.39
2019-01-19T06:48:55.593Z,99.32
2019-01-19T06:51:24.769Z,99.31
2019-01-19T06:54:01.552Z,99.35
2019-01-19T06:56:26.480Z,99.29
2019-01-19T06:58:55.650Z,99.17
2019-01-19T07:01:25.215Z,99.39
2019-01-19T07:03:54.372Z,99.39
2019-01-19T07:06:23.590Z,99.11
2019-01-19T07:08:53.056Z,98.89
2019-01-19T07:11:22.658Z,98.79
2019-01-19T07:13:51.864Z,98.69
2019-01-19T07:16:21.041Z,98.69
2019-01-19T07:18:50.796Z,98.73
2019-01-19T07:21:20.590Z,98.86
2019-01-19T07:23:50.081Z,98.92
2019-01-19T07:26:19.903Z,98.85
2019-01-19T07:28:49.434Z,98.90
2019-01-19T07:31:19.328Z,98.87
2019-01-19T07:33:48.844Z,98.69
2019-01-19T07:36:18.325Z,98.47
2019-01-19T07:38:47.828Z,98.20
2019-01-19T07:41:17.448Z,98.36
2019-01-19T07:43:46.615Z,98.26
2019-01-19T07:46:16.572Z,98.14
2019-01-19T07:48:45.753Z,97.94
2019-01-19T07:51:15.276Z,98.06
2019-01-19T07:53:44.625Z,98.36
2019-01-19T07:56:13.804Z,98.41
2019-01-19T07:58:43.085Z,98.62
2019-01-19T08:01:14.462Z,98.37
2019-01-19T08:03:43.646Z,98.41
2019-01-19T08:06:13.954Z,98.41
2019-01-19T08:08:45.709Z,98.23
2019-01-19T08:11:15.236Z,98.51
2019-01-19T08:13:44.936Z,98.27
2019-01-19T08:16:14.193Z,98.19
2019-01-19T08:18:44.219Z,98.23
2019-01-19T08:21:13.667Z,97.93
2019-01-19T08:23:43.254Z,97.50
2019-01-19T08:26:12.431Z,97.68
2019-01-19T08:28:41.645Z,97.83
2019-01-19T08:31:11.268Z,97.30
2019-01-19T08:33:40.419Z,96.84
2019-01-19T08:36:10.354Z,96.87
2019-01-19T08:38:39.563Z,96.34
2019-01-19T08:41:08.760Z,96.52
2019-01-19T08:43:45.009Z,96.50
2019-01-19T08:46:14.253Z,95.86
2019-01-19T08:48:43.510Z,95.87
2019-01-19T08:51:14.276Z,95.23
2019-01-19T08:53:43.497Z,94.75
2019-01-19T08:56:12.986Z,94.21
2019-01-19T08:58:42.504Z,93.76
2019-01-19T09:01:12.045Z,93.83
2019-01-19T09:03:41.644Z,93.26
2019-01-19T09:06:10.885Z,93.27
2019-01-19T09:08:40.632Z,92.43
2019-01-19T09:11:09.857Z,92.20
2019-01-19T09:13:39.461Z,91.83
2019-01-19T09:16:17.007Z,91.61
2019-01-19T09:18:46.864Z,91.68
2019-01-19T09:21:16.476Z,91.77
2019-01-19T09:24:02.048Z,92.22
2019-01-19T09:26:31.311Z,91.53
2019-01-19T09:29:00.510Z,91.97
2019-01-19T09:31:30.046Z,92.14
2019-01-19T09:34:00.127Z,92.05
2019-01-19T09:36:29.435Z,92.10
2019-01-19T09:38:58.988Z,92.14
2019-01-19T09:41:28.205Z,92.31
2019-01-19T09:43:58.203Z,91.37
2019-01-19T09:46:27.357Z,91.67
2019-01-19T09:48:56.651Z,91.86
2019-01-19T09:51:26.161Z,91.32
2019-01-19T09:53:55.761Z,90.97
2019-01-19T09:56:24.994Z,91.05
2019-01-19T09:58:54.503Z,91.55
2019-01-19T10:01:25.471Z,91.12
2019-01-19T10:03:55.799Z,91.61
2019-01-19T10:06:25.116Z,91.41
2019-01-19T10:08:55.235Z,91.60
2019-01-19T10:11:24.961Z,91.38
2019-01-19T10:13:54.821Z,90.85
2019-01-19T10:16:24.904Z,91.51
2019-01-19T10:18:54.608Z,91.63
2019-01-19T10:21:24.124Z,91.49
2019-01-19T10:23:53.777Z,90.48
2019-01-19T10:26:24.218Z,90.61
2019-01-19T10:28:53.928Z,89.29
2019-01-19T10:31:23.236Z,90.16
2019-01-19T10:33:52.707Z,90.20
2019-01-19T10:36:22.549Z,90.16
2019-01-19T10:38:52.357Z,90.88
2019-01-19T10:41:21.981Z,90.02
2019-01-19T10:43:51.512Z,90.46
2019-01-19T10:46:21.376Z,89.81
2019-01-19T10:48:50.685Z,89.72
2019-01-19T10:51:20.211Z,90.12
2019-01-19T10:53:49.809Z,88.86
2019-01-19T10:56:19.005Z,89.80
2019-01-19T10:58:48.548Z,88.78
2019-01-19T11:01:17.997Z,88.73
2019-01-19T11:03:47.443Z,89.46
2019-01-19T11:06:16.688Z,89.11
2019-01-19T11:08:45.870Z,89.35
2019-01-19T11:11:15.637Z,88.73
2019-01-19T11:13:45.207Z,88.39
2019-01-19T11:16:14.372Z,88.54
2019-01-19T11:18:43.567Z,88.77
2019-01-19T11:21:12.821Z,89.17
2019-01-19T11:23:43.198Z,89.47
2019-01-19T11:26:12.402Z,88.71
2019-01-19T11:28:45.019Z,88.08
2019-01-19T11:31:14.223Z,88.30
2019-01-19T11:33:43.691Z,87.93
2019-01-19T11:36:12.885Z,87.59
2019-01-19T11:38:42.109Z,87.61
2019-01-19T11:41:11.706Z,88.26
2019-01-19T11:43:40.914Z,87.47
2019-01-19T11:46:10.643Z,87.61
2019-01-19T11:48:40.476Z,88.03
2019-01-19T11:51:09.662Z,87.91
2019-01-19T11:53:38.884Z,87.99
2019-01-19T11:56:12.298Z,87.32
2019-01-19T11:58:39.284Z,87.88
2019-01-19T12:01:08.563Z,87.32
2019-01-19T12:03:37.742Z,87.46
2019-01-19T12:06:07.072Z,86.78
2019-01-19T12:08:36.742Z,86.73
2019-01-19T12:11:06.907Z,85.57
2019-01-19T12:13:36.553Z,86.53
2019-01-19T12:16:05.977Z,86.13
2019-01-19T12:18:35.525Z,86.38
2019-01-19T12:21:05.066Z,85.25
2019-01-19T12:23:34.607Z,85.12
2019-01-19T12:26:03.829Z,85.27
2019-01-19T12:28:32.971Z,85.25
2019-01-19T12:31:02.475Z,85.27
2019-01-19T12:33:31.657Z,85.01
2019-01-19T12:36:00.810Z,84.59
2019-01-19T12:38:29.985Z,84.18
2019-01-19T12:40:59.174Z,83.89
2019-01-19T12:43:28.326Z,83.59
2019-01-19T12:46:02.732Z,83.14
2019-01-19T12:48:32.267Z,83.33
2019-01-19T12:51:03.376Z,82.71
2019-01-19T12:53:32.709Z,82.71
2019-01-19T12:56:02.249Z,82.62
2019-01-19T12:58:31.414Z,83.70
2019-01-19T13:01:00.620Z,83.14
2019-01-19T13:03:30.358Z,82.18
2019-01-19T13:06:39.055Z,82.62
2019-01-19T13:09:38.489Z,82.34
2019-01-19T13:12:46.373Z,82.36
2019-01-19T13:15:55.740Z,82.58
2019-01-19T13:18:50.634Z,81.88
2019-01-19T13:21:49.500Z,81.59
2019-01-19T13:25:05.265Z,80.80
2019-01-19T13:28:23.239Z,80.89
2019-01-19T13:31:28.346Z,80.85
2019-01-19T13:34:31.702Z,80.77
2019-01-19T13:37:25.781Z,81.01
2019-01-19T13:40:41.138Z,80.94
2019-01-19T13:43:50.411Z,80.98
2019-01-19T13:46:56.892Z,81.48
2019-01-19T13:50:16.306Z,81.45
2019-01-19T13:53:25.307Z,80.90
2019-01-19T13:56:42.663Z,80.39
2019-01-19T14:00:08.369Z,80.57
2019-01-19T14:03:14.601Z,81.14
2019-01-19T14:06:33.444Z,80.74
2019-01-19T14:09:27.181Z,80.68
2019-01-19T14:12:22.572Z,80.75
2019-01-19T14:15:41.947Z,80.71
2019-01-19T14:18:43.161Z,81.13
2019-01-19T14:22:04.821Z,81.92
2019-01-19T14:25:02.697Z,81.81
2019-01-19T14:28:09.052Z,81.70
2019-01-19T14:31:08.061Z,81.95
2019-01-19T14:34:00.830Z,82.00
2019-01-19T14:36:52.646Z,82.64
2019-01-19T14:39:43.395Z,82.15
2019-01-19T14:42:51.054Z,82.61
2019-01-19T14:45:49.676Z,82.18
2019-01-19T14:48:57.551Z,81.44
2019-01-19T14:51:52.390Z,82.03
2019-01-19T14:55:05.737Z,82.02
2019-01-19T14:58:02.285Z,82.72
2019-01-19T15:01:07.231Z,83.23
2019-01-19T15:04:23.897Z,83.47
2019-01-19T15:07:52.555Z,82.56
2019-01-19T15:10:42.867Z,83.29
2019-01-19T15:13:48.065Z,83.85
2019-01-19T15:16:50.792Z,83.95
2019-01-19T15:19:56.187Z,84.56
2019-01-19T15:23:06.236Z,85.06
2019-01-19T15:26:04.188Z,85.40
2019-01-19T15:28:53.071Z,85.82
2019-01-19T15:32:12.620Z,85.32
2019-01-19T15:35:06.519Z,85.38
2019-01-19T15:38:14.751Z,86.13
2019-01-19T15:41:07.442Z,86.68
2019-01-19T15:43:56.632Z,86.34
2019-01-19T15:47:26.011Z,86.85
2019-01-19T15:50:29.879Z,87.16
2019-01-19T15:53:37.548Z,87.33
2019-01-19T15:56:22.910Z,87.11
2019-01-19T15:59:18.674Z,87.73
2019-01-19T16:02:23.882Z,87.96
2019-01-19T16:05:20.425Z,87.54
2019-01-19T16:08:28.841Z,88.39
2019-01-19T16:11:34.366Z,88.89
2019-01-19T16:14:59.838Z,88.93
2019-01-19T16:18:43.499Z,89.09
2019-01-19T16:22:06.226Z,89.13
2019-01-19T16:25:17.264Z,89.23
2019-01-19T16:28:04.573Z,88.75
2019-01-19T16:31:30.018Z,88.50
2019-01-19T16:34:43.732Z,87.78
2019-01-19T16:37:52.207Z,88.42
2019-01-19T16:40:49.164Z,88.60
2019-01-19T16:43:43.283Z,87.72
2019-01-19T16:47:20.889Z,87.50
2019-01-19T16:50:19.021Z,87.82
2019-01-19T16:53:20.373Z,88.14
2019-01-19T16:56:33.810Z,88.70
2019-01-19T16:59:24.962Z,88.44
2019-01-19T17:02:40.269Z,88.55
2019-01-19T17:05:41.381Z,88.80
2019-01-19T17:08:56.901Z,88.69
2019-01-19T17:12:21.575Z,89.02
2019-01-19T17:15:13.729Z,88.77
2019-01-19T17:18:29.053Z,88.84
2019-01-19T17:21:41.495Z,89.29
2019-01-19T17:24:42.947Z,89.14
2019-01-19T17:27:39.788Z,88.49
2019-01-19T17:30:31.953Z,88.60
2019-01-19T17:33:38.031Z,89.55
2019-01-19T17:36:42.915Z,89.75
2019-01-19T17:39:59.931Z,89.56
2019-01-19T17:43:34.401Z,89.51
2019-01-19T17:47:12.039Z,89.88
2019-01-19T17:50:31.756Z,89.54
2019-01-19T17:54:06.991Z,89.56
2019-01-19T17:57:35.391Z,89.24
2019-01-19T18:00:42.873Z,89.48
2019-01-19T18:03:48.335Z,89.74
2019-01-19T18:06:28.576Z,90.24
2019-01-19T18:09:29.399Z,90.40
2019-01-19T18:12:37.136Z,90.23
2019-01-19T18:15:46.064Z,90.26
2019-01-19T18:18:38.651Z,90.58
2019-01-19T18:21:24.874Z,90.57
2019-01-19T18:24:48.086Z,90.21
2019-01-19T18:27:59.095Z,90.60
2019-01-19T18:31:10.082Z,90.59
2019-01-19T18:34:17.503Z,90.40
2019-01-19T18:37:55.695Z,90.63
2019-01-19T18:40:55.455Z,90.44
2019-01-19T18:44:09.213Z,90.43
2019-01-19T18:47:16.910Z,90.19
2019-01-19T18:50:20.924Z,90.76
2019-01-19T18:53:21.708Z,90.20
2019-01-19T18:56:27.777Z,89.84
2019-01-19T18:59:24.209Z,89.82
2019-01-19T19:02:30.713Z,89.50
2019-01-19T19:05:39.927Z,89.56
2019-01-19T19:08:45.003Z,90.15
2019-01-19T19:11:43.303Z,90.48
2019-01-19T19:14:20.100Z,90.52
2019-01-19T19:17:45.904Z,90.18
2019-01-19T19:20:37.764Z,90.07
2019-01-19T19:23:23.452Z,90.38
2019-01-19T19:26:18.943Z,90.46
2019-01-19T19:29:35.079Z,90.15
2019-01-19T19:32:25.915Z,90.45
2019-01-19T19:35:28.969Z,90.35
2019-01-19T19:38:44.658Z,89.95
2019-01-19T19:42:03.990Z,90.30
2019-01-19T19:45:06.604Z,90.54
2019-01-19T19:48:10.573Z,90.50
2019-01-19T19:51:16.462Z,89.77
2019-01-19T19:53:45.955Z,89.54
2019-01-19T19:56:13.857Z,89.54
2019-01-19T19:58:43.084Z,89.53
2019-01-19T20:01:12.272Z,88.97
2019-01-19T20:03:41.839Z,89.34
2019-01-19T20:06:11.552Z,90.06
2019-01-19T20:08:40.787Z,90.01
2019-01-19T20:11:10.007Z,89.46
2019-01-19T20:13:39.169Z,89.43
2019-01-19T20:16:08.735Z,89.90
2019-01-19T20:18:38.411Z,90.03
2019-01-19T20:21:07.571Z,89.43
2019-01-19T20:23:37.187Z,89.60
2019-01-19T20:26:06.766Z,89.63
2019-01-19T20:28:37.769Z,89.72
2019-01-19T20:31:07.463Z,89.53
2019-01-19T20:33:37.110Z,89.06
2019-01-19T20:36:06.589Z,88.88
2019-01-19T20:38:35.793Z,88.94
2019-01-19T20:41:05.437Z,89.46
2019-01-19T20:43:34.724Z,89.56
2019-01-19T20:46:05.368Z,89.08
2019-01-19T20:48:37.087Z,88.99
2019-01-19T20:51:06.378Z,88.93
2019-01-19T20:53:36.339Z,88.42
2019-01-19T20:56:06.539Z,88.41
2019-01-19T20:58:36.118Z,87.97
2019-01-19T21:01:05.281Z,87.94
2019-01-19T21:03:34.423Z,88.08
2019-01-19T21:06:05.024Z,87.87
2019-01-19T21:08:34.505Z,87.38
2019-01-19T21:11:03.792Z,87.10
2019-01-19T21:13:33.377Z,87.43
2019-01-19T21:16:02.607Z,87.65
2019-01-19T21:18:32.181Z,88.02
2019-01-19T21:21:01.546Z,87.53
2019-01-19T21:23:30.677Z,87.49
2019-01-19T21:25:59.880Z,87.51
2019-01-19T21:28:29.029Z,86.99
2019-01-19T21:30:58.313Z,86.47
2019-01-19T21:33:27.515Z,86.64
2019-01-19T21:35:56.815Z,86.48
2019-01-19T21:38:26.038Z,86.51
2019-01-19T21:40:55.573Z,86.78
2019-01-19T21:43:25.313Z,87.08
2019-01-19T21:45:54.619Z,86.98
2019-01-19T21:48:24.215Z,87.53
2019-01-19T21:50:54.779Z,87.15
2019-01-19T21:53:24.078Z,86.56
2019-01-19T21:55:53.719Z,87.05
2019-01-19T21:58:23.227Z,86.97
2019-01-19T22:00:52.453Z,86.95
2019-01-19T22:03:22.037Z,87.06
2019-01-19T22:05:51.893Z,87.16
2019-01-19T22:08:21.737Z,87.04
2019-01-19T22:10:50.899Z,86.99
2019-01-19T22:13:20.614Z,87.56
2019-01-19T22:15:49.852Z,87.37
2019-01-19T22:18:19.004Z,87.15
2019-01-19T22:20:48.614Z,86.79
2019-01-19T22:23:18.190Z,87.18
2019-01-19T22:25:47.525Z,87.29
2019-01-19T22:28:17.236Z,87.40
2019-01-19T22:30:46.424Z,86.12
2019-01-19T22:33:16.262Z,86.07
2019-01-19T22:35:45.453Z,85.64
2019-01-19T22:38:14.695Z,85.76
2019-01-19T22:40:44.227Z,86.15
2019-01-19T22:43:17.669Z,86.66
2019-01-19T22:45:47.245Z,86.64
2019-01-19T22:48:16.491Z,86.20
2019-01-19T22:50:45.664Z,86.34
2019-01-19T22:53:15.262Z,86.39
2019-01-19T22:55:44.714Z,86.23
2019-01-19T22:58:14.139Z,86.10
2019-01-19T23:01:20.601Z,86.97
2019-01-19T23:03:50.139Z,87.44
2019-01-19T23:06:19.296Z,87.33
2019-01-19T23:08:48.492Z,86.84
2019-01-19T23:11:17.714Z,87.07
2019-01-19T23:13:47.638Z,87.21
2019-01-19T23:16:17.272Z,87.11
2019-01-19T23:18:46.782Z,86.94
2019-01-19T23:21:16.166Z,86.45
2019-01-19T23:23:45.314Z,86.32
2019-01-19T23:26:14.892Z,86.78
2019-01-19T23:28:44.805Z,86.82
2019-01-19T23:31:14.288Z,86.82
2019-01-19T23:33:43.823Z,86.67
2019-01-19T23:36:13.912Z,86.30
2019-01-19T23:38:43.058Z,85.80
2019-01-19T23:41:12.235Z,86.22
2019-01-19T23:43:41.735Z,86.41
2019-01-19T23:46:11.352Z,86.41
2019-01-19T23:48:40.528Z,86.84
2019-01-19T23:51:11.469Z,86.84
2019-01-19T23:53:41.396Z,87.38
2019-01-19T23:56:10.705Z,87.38
2019-01-19T23:58:40.184Z,87.36
